sensor_id;sensor_type;location;lat;lon;timestamp;pressure;altitude;pressure_sealevel;temperature;humidity
35918;BME280;22011;59.912;30.300;2023-11-21T00:00:18;101836.03;;;-1.39;64.01
35918;BME280;22011;59.912;30.300;2023-11-21T00:02:45;101834.25;;;-1.39;64.34
35918;BME280;22011;59.912;30.300;2023-11-21T00:05:13;101841.84;;;-1.33;64.18
35918;BME280;22011;59.912;30.300;2023-11-21T00:07:42;101833.94;;;-1.31;64.15
35918;BME280;22011;59.912;30.300;2023-11-21T00:10:10;101834.66;;;-1.27;64.17
35918;BME280;22011;59.912;30.300;2023-11-21T00:12:37;101838.91;;;-1.25;64.26
35918;BME280;22011;59.912;30.300;2023-11-21T00:15:08;101836.31;;;-1.25;64.18
35918;BME280;22011;59.912;30.300;2023-11-21T00:17:36;101830.09;;;-1.22;64.38
35918;BME280;22011;59.912;30.300;2023-11-21T00:20:04;101832.53;;;-1.18;64.27
35918;BME280;22011;59.912;30.300;2023-11-21T00:22:33;101836.84;;;-1.17;64.10
35918;BME280;22011;59.912;30.300;2023-11-21T00:25:01;101843.78;;;-1.16;64.06
35918;BME280;22011;59.912;30.300;2023-11-21T00:27:29;101846.25;;;-1.13;64.08
35918;BME280;22011;59.912;30.300;2023-11-21T00:29:57;101834.81;;;-1.10;64.11
35918;BME280;22011;59.912;30.300;2023-11-21T00:32:24;101841.63;;;-1.06;64.08
35918;BME280;22011;59.912;30.300;2023-11-21T00:34:51;101841.69;;;-1.08;63.99
35918;BME280;22011;59.912;30.300;2023-11-21T00:37:21;101839.91;;;-1.07;63.80
35918;BME280;22011;59.912;30.300;2023-11-21T00:39:49;101847.69;;;-1.06;64.02
35918;BME280;22011;59.912;30.300;2023-11-21T00:42:18;101850.25;;;-1.04;64.01
35918;BME280;22011;59.912;30.300;2023-11-21T00:44:45;101849.41;;;-1.05;63.86
35918;BME280;22011;59.912;30.300;2023-11-21T00:47:13;101843.16;;;-1.02;63.87
35918;BME280;22011;59.912;30.300;2023-11-21T00:49:40;101854.53;;;-1.03;63.84
35918;BME280;22011;59.912;30.300;2023-11-21T00:52:08;101847.63;;;-1.04;63.89
35918;BME280;22011;59.912;30.300;2023-11-21T00:54:35;101844.00;;;-1.02;63.83
35918;BME280;22011;59.912;30.300;2023-11-21T00:57:03;101862.13;;;-0.97;63.85
35918;BME280;22011;59.912;30.300;2023-11-21T00:59:31;101853.38;;;-0.96;63.79
35918;BME280;22011;59.912;30.300;2023-11-21T01:01:59;101853.97;;;-0.89;63.73
35918;BME280;22011;59.912;30.300;2023-11-21T01:04:27;101859.06;;;-0.86;63.61
35918;BME280;22011;59.912;30.300;2023-11-21T01:06:54;101863.38;;;-0.85;63.60
35918;BME280;22011;59.912;30.300;2023-11-21T01:09:21;101860.75;;;-0.85;63.75
35918;BME280;22011;59.912;30.300;2023-11-21T01:11:49;101864.88;;;-0.80;63.67
35918;BME280;22011;59.912;30.300;2023-11-21T01:14:17;101866.44;;;-0.76;63.65
35918;BME280;22011;59.912;30.300;2023-11-21T01:16:46;101860.38;;;-0.76;63.65
35918;BME280;22011;59.912;30.300;2023-11-21T01:19:14;101855.13;;;-0.76;63.43
35918;BME280;22011;59.912;30.300;2023-11-21T01:21:41;101867.97;;;-0.70;63.34
35918;BME280;22011;59.912;30.300;2023-11-21T01:24:09;101868.59;;;-0.65;63.39
35918;BME280;22011;59.912;30.300;2023-11-21T01:26:36;101869.59;;;-0.68;63.44
35918;BME280;22011;59.912;30.300;2023-11-21T01:29:03;101871.34;;;-0.68;63.20
35918;BME280;22011;59.912;30.300;2023-11-21T01:31:31;101875.69;;;-0.67;63.32
35918;BME280;22011;59.912;30.300;2023-11-21T01:34:00;101872.34;;;-0.71;63.22
35918;BME280;22011;59.912;30.300;2023-11-21T01:36:29;101869.00;;;-0.74;63.15
35918;BME280;22011;59.912;30.300;2023-11-21T01:38:57;101875.09;;;-0.74;63.49
35918;BME280;22011;59.912;30.300;2023-11-21T01:41:25;101874.25;;;-0.74;63.29
35918;BME280;22011;59.912;30.300;2023-11-21T01:43:52;101869.13;;;-0.77;63.44
35918;BME280;22011;59.912;30.300;2023-11-21T01:46:20;101872.53;;;-0.75;63.45
35918;BME280;22011;59.912;30.300;2023-11-21T01:48:48;101881.31;;;-0.76;63.33
35918;BME280;22011;59.912;30.300;2023-11-21T01:51:17;101873.44;;;-0.76;63.25
35918;BME280;22011;59.912;30.300;2023-11-21T01:53:45;101880.38;;;-0.75;63.46
35918;BME280;22011;59.912;30.300;2023-11-21T01:56:12;101874.38;;;-0.77;63.48
35918;BME280;22011;59.912;30.300;2023-11-21T01:58:40;101878.69;;;-0.76;63.45
35918;BME280;22011;59.912;30.300;2023-11-21T02:01:07;101871.69;;;-0.76;63.44
35918;BME280;22011;59.912;30.300;2023-11-21T02:03:35;101885.81;;;-0.80;63.63
35918;BME280;22011;59.912;30.300;2023-11-21T02:06:03;101877.97;;;-0.80;63.67
35918;BME280;22011;59.912;30.300;2023-11-21T02:08:32;101881.44;;;-0.79;63.78
35918;BME280;22011;59.912;30.300;2023-11-21T02:10:59;101882.28;;;-0.79;63.67
35918;BME280;22011;59.912;30.300;2023-11-21T02:13:28;101881.38;;;-0.78;63.61
35918;BME280;22011;59.912;30.300;2023-11-21T02:15:55;101888.38;;;-0.78;63.66
35918;BME280;22011;59.912;30.300;2023-11-21T02:18:23;101891.91;;;-0.79;63.81
35918;BME280;22011;59.912;30.300;2023-11-21T02:20:50;101890.06;;;-0.77;63.81
35918;BME280;22011;59.912;30.300;2023-11-21T02:23:21;101903.09;;;-0.76;63.88
35918;BME280;22011;59.912;30.300;2023-11-21T02:25:54;101899.56;;;-0.75;63.77
35918;BME280;22011;59.912;30.300;2023-11-21T02:28:21;101901.31;;;-0.75;63.81
35918;BME280;22011;59.912;30.300;2023-11-21T02:30:52;101896.88;;;-0.73;63.83
35918;BME280;22011;59.912;30.300;2023-11-21T02:33:21;101901.97;;;-0.70;63.80
35918;BME280;22011;59.912;30.300;2023-11-21T02:35:48;101906.28;;;-0.69;63.69
35918;BME280;22011;59.912;30.300;2023-11-21T02:38:19;101901.97;;;-0.70;63.80
35918;BME280;22011;59.912;30.300;2023-11-21T02:40:48;101905.50;;;-0.71;63.85
35918;BME280;22011;59.912;30.300;2023-11-21T02:43:15;101901.13;;;-0.71;63.63
35918;BME280;22011;59.912;30.300;2023-11-21T02:45:43;101903.09;;;-0.76;63.84
35918;BME280;22011;59.912;30.300;2023-11-21T02:48:10;101901.53;;;-0.80;63.70
35918;BME280;22011;59.912;30.300;2023-11-21T02:50:37;101903.22;;;-0.79;63.86
35918;BME280;22011;59.912;30.300;2023-11-21T02:53:04;101900.66;;;-0.80;63.91
35918;BME280;22011;59.912;30.300;2023-11-21T02:55:32;101905.00;;;-0.79;63.90
35918;BME280;22011;59.912;30.300;2023-11-21T02:58:02;101910.16;;;-0.78;64.11
35918;BME280;22011;59.912;30.300;2023-11-21T03:00:30;101905.66;;;-0.74;63.87
35918;BME280;22011;59.912;30.300;2023-11-21T03:02:57;101912.56;;;-0.73;63.91
35918;BME280;22011;59.912;30.300;2023-11-21T03:05:25;101915.19;;;-0.73;63.70
35918;BME280;22011;59.912;30.300;2023-11-21T03:07:54;101917.75;;;-0.72;63.98
35918;BME280;22011;59.912;30.300;2023-11-21T03:10:22;101916.91;;;-0.72;63.75
35918;BME280;22011;59.912;30.300;2023-11-21T03:12:49;101918.59;;;-0.71;63.98
35918;BME280;22011;59.912;30.300;2023-11-21T03:15:18;101920.44;;;-0.73;63.87
35918;BME280;22011;59.912;30.300;2023-11-21T03:17:45;101924.94;;;-0.77;64.12
35918;BME280;22011;59.912;30.300;2023-11-21T03:20:15;101927.69;;;-0.80;64.07
35918;BME280;22011;59.912;30.300;2023-11-21T03:22:42;101927.75;;;-0.81;64.04
35918;BME280;22011;59.912;30.300;2023-11-21T03:25:10;101929.50;;;-0.82;63.98
35918;BME280;22011;59.912;30.300;2023-11-21T03:27:37;101926.03;;;-0.82;64.24
35918;BME280;22011;59.912;30.300;2023-11-21T03:30:07;101937.31;;;-0.80;64.13
35918;BME280;22011;59.912;30.300;2023-11-21T03:32:37;101937.19;;;-0.77;64.03
35918;BME280;22011;59.912;30.300;2023-11-21T03:35:04;101935.34;;;-0.75;63.94
35918;BME280;22011;59.912;30.300;2023-11-21T03:37:32;101937.84;;;-0.72;64.08
35918;BME280;22011;59.912;30.300;2023-11-21T03:40:00;101937.84;;;-0.72;63.94
35918;BME280;22011;59.912;30.300;2023-11-21T03:42:29;101939.66;;;-0.74;63.85
35918;BME280;22011;59.912;30.300;2023-11-21T03:44:57;101940.44;;;-0.72;63.88
35918;BME280;22011;59.912;30.300;2023-11-21T03:47:25;101935.03;;;-0.68;63.67
35918;BME280;22011;59.912;30.300;2023-11-21T03:49:54;101937.44;;;-0.63;63.59
35918;BME280;22011;59.912;30.300;2023-11-21T03:52:21;101933.00;;;-0.61;63.36
35918;BME280;22011;59.912;30.300;2023-11-21T03:54:49;101944.25;;;-0.59;63.35
35918;BME280;22011;59.912;30.300;2023-11-21T03:57:16;101933.00;;;-0.61;63.10
35918;BME280;22011;59.912;30.300;2023-11-21T03:59:43;101936.78;;;-0.68;63.12
35918;BME280;22011;59.912;30.300;2023-11-21T04:02:11;101940.38;;;-0.71;63.14
35918;BME280;22011;59.912;30.300;2023-11-21T04:04:38;101938.63;;;-0.70;63.08
35918;BME280;22011;59.912;30.300;2023-11-21T04:07:07;101947.25;;;-0.68;63.01
35918;BME280;22011;59.912;30.300;2023-11-21T04:09:34;101956.63;;;-0.62;63.01
35918;BME280;22011;59.912;30.300;2023-11-21T04:12:02;101953.03;;;-0.60;62.84
35918;BME280;22011;59.912;30.300;2023-11-21T04:14:29;101951.97;;;-0.56;62.68
35918;BME280;22011;59.912;30.300;2023-11-21T04:16:56;101948.38;;;-0.53;62.73
35918;BME280;22011;59.912;30.300;2023-11-21T04:19:24;101957.03;;;-0.51;62.42
35918;BME280;22011;59.912;30.300;2023-11-21T04:21:51;101963.03;;;-0.49;62.23
35918;BME280;22011;59.912;30.300;2023-11-21T04:24:20;101972.91;;;-0.56;62.46
35918;BME280;22011;59.912;30.300;2023-11-21T04:26:47;101969.50;;;-0.58;62.38
35918;BME280;22011;59.912;30.300;2023-11-21T04:29:14;101968.84;;;-0.63;62.47
35918;BME280;22011;59.912;30.300;2023-11-21T04:31:42;101981.09;;;-0.63;62.41
35918;BME280;22011;59.912;30.300;2023-11-21T04:34:09;101987.31;;;-0.66;62.27
35918;BME280;22011;59.912;30.300;2023-11-21T04:36:36;101989.91;;;-0.66;62.33
35918;BME280;22011;59.912;30.300;2023-11-21T04:39:04;101995.09;;;-0.64;62.45
35918;BME280;22011;59.912;30.300;2023-11-21T04:41:33;102004.28;;;-0.54;62.00
35918;BME280;22011;59.912;30.300;2023-11-21T04:44:02;102010.28;;;-0.52;61.64
35918;BME280;22011;59.912;30.300;2023-11-21T04:46:30;102009.69;;;-0.59;61.38
35918;BME280;22011;59.912;30.300;2023-11-21T04:48:57;102014.41;;;-0.67;61.55
35918;BME280;22011;59.912;30.300;2023-11-21T04:51:25;102015.69;;;-0.77;61.52
35918;BME280;22011;59.912;30.300;2023-11-21T04:53:53;102009.00;;;-0.84;61.54
35918;BME280;22011;59.912;30.300;2023-11-21T04:56:20;102004.78;;;-0.88;61.43
35918;BME280;22011;59.912;30.300;2023-11-21T04:58:49;102020.56;;;-0.90;61.60
35918;BME280;22011;59.912;30.300;2023-11-21T05:01:16;102019.47;;;-1.06;61.63
35918;BME280;22011;59.912;30.300;2023-11-21T05:03:43;102022.34;;;-1.12;61.88
35918;BME280;22011;59.912;30.300;2023-11-21T05:06:13;102014.66;;;-1.17;61.92
35918;BME280;22011;59.912;30.300;2023-11-21T05:08:40;102022.63;;;-1.20;61.91
35918;BME280;22011;59.912;30.300;2023-11-21T05:11:08;102017.53;;;-1.23;62.02
35918;BME280;22011;59.912;30.300;2023-11-21T05:13:36;102017.53;;;-1.23;61.97
35918;BME280;22011;59.912;30.300;2023-11-21T05:16:06;102013.63;;;-1.35;61.79
35918;BME280;22011;59.912;30.300;2023-11-21T05:18:34;102026.75;;;-1.36;61.75
35918;BME280;22011;59.912;30.300;2023-11-21T05:21:01;102021.63;;;-1.39;61.95
35918;BME280;22011;59.912;30.300;2023-11-21T05:23:29;102020.84;;;-1.41;61.89
35918;BME280;22011;59.912;30.300;2023-11-21T05:25:56;102026.84;;;-1.39;61.86
35918;BME280;22011;59.912;30.300;2023-11-21T05:28:23;102031.06;;;-1.35;61.83
35918;BME280;22011;59.912;30.300;2023-11-21T05:30:51;102032.03;;;-1.38;61.82
35918;BME280;22011;59.912;30.300;2023-11-21T05:33:20;102039.06;;;-1.40;61.71
35918;BME280;22011;59.912;30.300;2023-11-21T05:35:47;102043.47;;;-1.40;61.64
35918;BME280;22011;59.912;30.300;2023-11-21T05:38:15;102046.06;;;-1.40;61.75
35918;BME280;22011;59.912;30.300;2023-11-21T05:40:42;102053.84;;;-1.39;61.88
35918;BME280;22011;59.912;30.300;2023-11-21T05:43:09;102063.47;;;-1.39;61.54
35918;BME280;22011;59.912;30.300;2023-11-21T05:45:37;102058.84;;;-1.33;61.88
35918;BME280;22011;59.912;30.300;2023-11-21T05:48:05;102056.19;;;-1.31;61.73
35918;BME280;22011;59.912;30.300;2023-11-21T05:50:33;102057.94;;;-1.32;61.67
35918;BME280;22011;59.912;30.300;2023-11-21T05:53:00;102059.53;;;-1.27;61.85
35918;BME280;22011;59.912;30.300;2023-11-21T05:55:28;102065.50;;;-1.24;61.59
35918;BME280;22011;59.912;30.300;2023-11-21T05:57:55;102069.03;;;-1.25;61.79
35918;BME280;22011;59.912;30.300;2023-11-21T06:00:23;102075.97;;;-1.24;61.52
35918;BME280;22011;59.912;30.300;2023-11-21T06:02:52;102078.56;;;-1.24;61.45
35918;BME280;22011;59.912;30.300;2023-11-21T06:05:20;102082.03;;;-1.23;61.65
35918;BME280;22011;59.912;30.300;2023-11-21T06:07:50;102082.84;;;-1.21;61.66
35918;BME280;22011;59.912;30.300;2023-11-21T06:10:19;102087.09;;;-1.19;61.51
35918;BME280;22011;59.912;30.300;2023-11-21T06:12:46;102084.50;;;-1.19;61.56
35918;BME280;22011;59.912;30.300;2023-11-21T06:15:14;102091.31;;;-1.15;61.56
35918;BME280;22011;59.912;30.300;2023-11-21T06:17:42;102111.31;;;-1.14;61.51
35918;BME280;22011;59.912;30.300;2023-11-21T06:20:11;102109.56;;;-1.13;61.36
35918;BME280;22011;59.912;30.300;2023-11-21T06:22:40;102107.06;;;-1.16;61.36
35918;BME280;22011;59.912;30.300;2023-11-21T06:25:09;102119.28;;;-1.17;61.37
35918;BME280;22011;59.912;30.300;2023-11-21T06:27:39;102119.22;;;-1.15;61.44
35918;BME280;22011;59.912;30.300;2023-11-21T06:30:07;102119.22;;;-1.15;61.57
35918;BME280;22011;59.912;30.300;2023-11-21T06:32:35;102125.31;;;-1.15;61.56
35918;BME280;22011;59.912;30.300;2023-11-21T06:35:03;102124.41;;;-1.14;61.32
35918;BME280;22011;59.912;30.300;2023-11-21T06:37:31;102127.88;;;-1.13;61.41
35918;BME280;22011;59.912;30.300;2023-11-21T06:39:58;102129.75;;;-1.17;61.28
35918;BME280;22011;59.912;30.300;2023-11-21T06:42:27;102130.66;;;-1.18;61.27
35918;BME280;22011;59.912;30.300;2023-11-21T06:44:55;102126.28;;;-1.17;61.30
35918;BME280;22011;59.912;30.300;2023-11-21T06:47:23;102139.22;;;-1.14;61.23
35918;BME280;22011;59.912;30.300;2023-11-21T06:49:51;102140.09;;;-1.14;61.03
35918;BME280;22011;59.912;30.300;2023-11-21T06:52:19;102138.22;;;-1.10;60.96
35918;BME280;22011;59.912;30.300;2023-11-21T06:54:46;102145.09;;;-1.08;60.89
35918;BME280;22011;59.912;30.300;2023-11-21T06:57:15;102144.19;;;-1.07;60.84
35918;BME280;22011;59.912;30.300;2023-11-21T06:59:44;102145.22;;;-1.11;60.62
35918;BME280;22011;59.912;30.300;2023-11-21T07:02:11;102156.56;;;-1.12;60.30
35918;BME280;22011;59.912;30.300;2023-11-21T07:04:38;102154.03;;;-1.13;60.15
35918;BME280;22011;59.912;30.300;2023-11-21T07:07:06;102155.63;;;-1.09;60.11
35918;BME280;22011;59.912;30.300;2023-11-21T07:09:33;102152.16;;;-1.10;60.02
35918;BME280;22011;59.912;30.300;2023-11-21T07:12:01;102159.88;;;-1.07;59.87
35918;BME280;22011;59.912;30.300;2023-11-21T07:14:29;102156.16;;;-1.01;59.87
35918;BME280;22011;59.912;30.300;2023-11-21T07:16:59;102156.09;;;-1.00;59.71
35918;BME280;22011;59.912;30.300;2023-11-21T07:19:26;102158.66;;;-0.98;59.91
35918;BME280;22011;59.912;30.300;2023-11-21T07:21:53;102159.50;;;-0.98;59.70
35918;BME280;22011;59.912;30.300;2023-11-21T07:24:21;102161.28;;;-0.98;59.71
35918;BME280;22011;59.912;30.300;2023-11-21T07:26:49;102165.59;;;-0.97;59.32
35918;BME280;22011;59.912;30.300;2023-11-21T07:29:16;102166.56;;;-1.00;59.38
35918;BME280;22011;59.912;30.300;2023-11-21T07:31:44;102164.75;;;-0.98;59.12
35918;BME280;22011;59.912;30.300;2023-11-21T07:34:12;102168.16;;;-0.95;59.03
35918;BME280;22011;59.912;30.300;2023-11-21T07:36:39;102174.97;;;-0.91;58.99
35918;BME280;22011;59.912;30.300;2023-11-21T07:39:07;102177.47;;;-0.88;58.82
35918;BME280;22011;59.912;30.300;2023-11-21T07:41:34;102177.41;;;-0.87;58.79
35918;BME280;22011;59.912;30.300;2023-11-21T07:44:01;102180.94;;;-0.88;58.43
35918;BME280;22011;59.912;30.300;2023-11-21T07:46:28;102179.19;;;-0.87;58.40
35918;BME280;22011;59.912;30.300;2023-11-21T07:48:56;102190.34;;;-0.82;58.51
35918;BME280;22011;59.912;30.300;2023-11-21T07:51:25;102184.13;;;-0.80;58.23
35918;BME280;22011;59.912;30.300;2023-11-21T07:53:52;102193.47;;;-0.73;58.32
35918;BME280;22011;59.912;30.300;2023-11-21T07:56:20;102193.47;;;-0.73;58.02
35918;BME280;22011;59.912;30.300;2023-11-21T07:58:47;102189.88;;;-0.70;58.05
35918;BME280;22011;59.912;30.300;2023-11-21T08:01:16;102190.66;;;-0.68;57.85
35918;BME280;22011;59.912;30.300;2023-11-21T08:03:43;102188.38;;;-0.54;57.47
35918;BME280;22011;59.912;30.300;2023-11-21T08:06:11;102190.75;;;-0.48;57.31
35918;BME280;22011;59.912;30.300;2023-11-21T08:08:39;102190.69;;;-0.46;57.36
35918;BME280;22011;59.912;30.300;2023-11-21T08:11:06;102180.28;;;-0.48;57.20
35918;BME280;22011;59.912;30.300;2023-11-21T08:13:36;102188.06;;;-0.46;56.91
35918;BME280;22011;59.912;30.300;2023-11-21T08:16:03;102180.97;;;-0.43;56.62
35918;BME280;22011;59.912;30.300;2023-11-21T08:18:33;102180.72;;;-0.37;56.64
35918;BME280;22011;59.912;30.300;2023-11-21T08:21:01;102173.59;;;-0.33;56.44
35918;BME280;22011;59.912;30.300;2023-11-21T08:23:29;102170.84;;;-0.30;56.47
35918;BME280;22011;59.912;30.300;2023-11-21T08:25:57;102175.06;;;-0.26;56.35
35918;BME280;22011;59.912;30.300;2023-11-21T08:28:24;102176.94;;;-0.29;56.31
35918;BME280;22011;59.912;30.300;2023-11-21T08:30:52;102176.34;;;-0.36;56.28
35918;BME280;22011;59.912;30.300;2023-11-21T08:33:19;102180.97;;;-0.43;56.28
35918;BME280;22011;59.912;30.300;2023-11-21T08:35:47;102187.00;;;-0.41;56.53
35918;BME280;22011;59.912;30.300;2023-11-21T08:38:14;102185.28;;;-0.42;56.64
35918;BME280;22011;59.912;30.300;2023-11-21T08:40:41;102179.94;;;-0.39;56.78
35918;BME280;22011;59.912;30.300;2023-11-21T08:43:10;102185.03;;;-0.36;56.75
35918;BME280;22011;59.912;30.300;2023-11-21T08:45:38;102188.44;;;-0.34;56.76
35918;BME280;22011;59.912;30.300;2023-11-21T08:48:05;102183.09;;;-0.30;56.61
35918;BME280;22011;59.912;30.300;2023-11-21T08:50:32;102183.22;;;-0.34;56.64
35918;BME280;22011;59.912;30.300;2023-11-21T08:53:00;102181.38;;;-0.31;56.82
35918;BME280;22011;59.912;30.300;2023-11-21T08:55:27;102178.88;;;-0.35;57.01
35918;BME280;22011;59.912;30.300;2023-11-21T08:57:54;102179.94;;;-0.39;56.75
35918;BME280;22011;59.912;30.300;2023-11-21T09:00:23;102174.75;;;-0.40;56.89
35918;BME280;22011;59.912;30.300;2023-11-21T09:02:53;102176.44;;;-0.39;57.04
35918;BME280;22011;59.912;30.300;2023-11-21T09:05:21;102185.91;;;-0.35;56.87
35918;BME280;22011;59.912;30.300;2023-11-21T09:07:48;102190.22;;;-0.34;57.12
35918;BME280;22011;59.912;30.300;2023-11-21T09:10:16;102190.94;;;-0.30;57.03
35918;BME280;22011;59.912;30.300;2023-11-21T09:12:43;102191.81;;;-0.30;56.94
35918;BME280;22011;59.912;30.300;2023-11-21T09:15:10;102192.91;;;-0.36;56.81
35918;BME280;22011;59.912;30.300;2023-11-21T09:17:39;102184.69;;;-0.26;57.18
35918;BME280;22011;59.912;30.300;2023-11-21T09:20:07;102193.38;;;-0.26;57.03
35918;BME280;22011;59.912;30.300;2023-11-21T09:22:35;102192.41;;;-0.23;57.15
35918;BME280;22011;59.912;30.300;2023-11-21T09:25:03;102187.22;;;-0.25;57.05
35918;BME280;22011;59.912;30.300;2023-11-21T09:27:32;102188.22;;;-0.27;56.77
35918;BME280;22011;59.912;30.300;2023-11-21T09:29:59;102188.88;;;-0.22;56.88
35918;BME280;22011;59.912;30.300;2023-11-21T09:32:26;102186.03;;;-0.16;57.01
35918;BME280;22011;59.912;30.300;2023-11-21T09:34:55;102188.69;;;-0.18;56.79
35918;BME280;22011;59.912;30.300;2023-11-21T09:37:24;102181.63;;;-0.16;56.79
35918;BME280;22011;59.912;30.300;2023-11-21T09:39:52;102182.59;;;-0.18;56.86
35918;BME280;22011;59.912;30.300;2023-11-21T09:42:22;102187.19;;;-0.23;56.59
35918;BME280;22011;59.912;30.300;2023-11-21T09:44:53;102191.81;;;-0.30;56.67
35918;BME280;22011;59.912;30.300;2023-11-21T09:47:22;102185.78;;;-0.32;57.01
35918;BME280;22011;59.912;30.300;2023-11-21T09:49:49;102197.34;;;-0.38;57.12
35918;BME280;22011;59.912;30.300;2023-11-21T09:52:22;102195.03;;;-0.23;57.29
35918;BME280;22011;59.912;30.300;2023-11-21T09:54:51;102197.22;;;-0.13;57.19
35918;BME280;22011;59.912;30.300;2023-11-21T09:57:20;102185.66;;;-0.07;57.29
35918;BME280;22011;59.912;30.300;2023-11-21T09:59:49;102193.25;;;-0.01;57.00
35918;BME280;22011;59.912;30.300;2023-11-21T10:02:17;102190.75;;;-0.04;56.85
35918;BME280;22011;59.912;30.300;2023-11-21T10:04:46;102191.63;;;-0.04;56.91
35918;BME280;22011;59.912;30.300;2023-11-21T10:07:13;102199.34;;;-0.01;57.09
35918;BME280;22011;59.912;30.300;2023-11-21T10:09:46;102207.28;;;-0.02;57.02
35918;BME280;22011;59.912;30.300;2023-11-21T10:12:14;102207.53;;;-0.08;57.00
35918;BME280;22011;59.912;30.300;2023-11-21T10:14:42;102199.72;;;-0.10;57.36
35918;BME280;22011;59.912;30.300;2023-11-21T10:17:10;102211.91;;;-0.09;57.42
35918;BME280;22011;59.912;30.300;2023-11-21T10:19:39;102210.25;;;-0.11;57.33
35918;BME280;22011;59.912;30.300;2023-11-21T10:22:07;102209.53;;;-0.15;57.74
35918;BME280;22011;59.912;30.300;2023-11-21T10:24:35;102204.28;;;-0.15;57.89
35918;BME280;22011;59.912;30.300;2023-11-21T10:27:04;102199.91;;;-0.14;58.05
35918;BME280;22011;59.912;30.300;2023-11-21T10:29:31;102211.13;;;-0.11;58.32
35918;BME280;22011;59.912;30.300;2023-11-21T10:32:01;102211.13;;;-0.11;58.87
35918;BME280;22011;59.912;30.300;2023-11-21T10:34:29;102217.44;;;-0.16;58.96
35918;BME280;22011;59.912;30.300;2023-11-21T10:36:56;102207.88;;;-0.17;59.03
35918;BME280;22011;59.912;30.300;2023-11-21T10:39:24;102213.00;;;-0.14;59.33
35918;BME280;22011;59.912;30.300;2023-11-21T10:41:56;102217.22;;;-0.10;59.66
35918;BME280;22011;59.912;30.300;2023-11-21T10:44:25;102204.28;;;-0.15;59.71
35918;BME280;22011;59.912;30.300;2023-11-21T10:46:53;102211.06;;;-0.09;59.97
35918;BME280;22011;59.912;30.300;2023-11-21T10:49:22;102215.31;;;-0.07;60.10
35918;BME280;22011;59.912;30.300;2023-11-21T10:51:50;102217.88;;;-0.05;60.25
35918;BME280;22011;59.912;30.300;2023-11-21T10:54:19;102224.09;;;-0.08;60.30
35918;BME280;22011;59.912;30.300;2023-11-21T10:56:48;102230.56;;;-0.16;60.50
35918;BME280;22011;59.912;30.300;2023-11-21T10:59:17;102234.09;;;-0.17;60.69
35918;BME280;22011;59.912;30.300;2023-11-21T11:01:45;102234.03;;;-0.16;60.82
35918;BME280;22011;59.912;30.300;2023-11-21T11:04:15;102240.34;;;-0.21;61.09
35918;BME280;22011;59.912;30.300;2023-11-21T11:06:45;102229.88;;;-0.21;61.21
35918;BME280;22011;59.912;30.300;2023-11-21T11:09:17;102233.28;;;-0.19;61.37
35918;BME280;22011;59.912;30.300;2023-11-21T11:11:45;102237.69;;;-0.20;61.44
35918;BME280;22011;59.912;30.300;2023-11-21T11:14:12;102230.56;;;-0.16;61.42
35918;BME280;22011;59.912;30.300;2023-11-21T11:16:40;102236.47;;;-0.11;61.73
35918;BME280;22011;59.912;30.300;2023-11-21T11:19:10;102229.34;;;-0.08;61.55
35918;BME280;22011;59.912;30.300;2023-11-21T11:21:42;102228.34;;;-0.05;61.82
35918;BME280;22011;59.912;30.300;2023-11-21T11:24:15;102233.66;;;-0.07;61.81
35918;BME280;22011;59.912;30.300;2023-11-21T11:26:46;102227.56;;;-0.07;61.89
35918;BME280;22011;59.912;30.300;2023-11-21T11:29:18;102227.44;;;-0.04;62.07
35918;BME280;22011;59.912;30.300;2023-11-21T11:31:55;102229.16;;;-0.03;62.06
35918;BME280;22011;59.912;30.300;2023-11-21T11:34:32;102225.91;;;-0.10;61.96
35918;BME280;22011;59.912;30.300;2023-11-21T11:37:00;102224.28;;;-0.12;62.25
35918;BME280;22011;59.912;30.300;2023-11-21T11:39:29;102227.63;;;-0.09;62.45
35918;BME280;22011;59.912;30.300;2023-11-21T11:41:57;102226.66;;;-0.06;62.36
35918;BME280;22011;59.912;30.300;2023-11-21T11:47:13;102223.00;;;-0.02;62.75
35918;BME280;22011;59.912;30.300;2023-11-21T11:52:34;102233.19;;;0.04;62.80
35918;BME280;22011;59.912;30.300;2023-11-21T11:55:02;102229.59;;;0.07;62.87
35918;BME280;22011;59.912;30.300;2023-11-21T11:57:30;102228.75;;;0.06;62.82
35918;BME280;22011;59.912;30.300;2023-11-21T12:02:46;102236.31;;;0.14;62.76
35918;BME280;22011;59.912;30.300;2023-11-21T12:05:14;102235.56;;;0.10;62.81
35918;BME280;22011;59.912;30.300;2023-11-21T12:07:43;102228.63;;;0.09;62.57
35918;BME280;22011;59.912;30.300;2023-11-21T12:10:12;102233.69;;;0.14;62.80
35918;BME280;22011;59.912;30.300;2023-11-21T12:12:43;102237.81;;;0.19;62.81
35918;BME280;22011;59.912;30.300;2023-11-21T12:15:12;102238.72;;;0.18;62.75
35918;BME280;22011;59.912;30.300;2023-11-21T12:17:39;102232.56;;;0.19;62.61
35918;BME280;22011;59.912;30.300;2023-11-21T12:20:07;102244.66;;;0.23;62.79
35918;BME280;22011;59.912;30.300;2023-11-21T12:22:41;102250.81;;;0.22;62.69
35918;BME280;22011;59.912;30.300;2023-11-21T12:25:10;102249.94;;;0.22;62.73
35918;BME280;22011;59.912;30.300;2023-11-21T12:27:42;102248.97;;;0.24;62.75
35918;BME280;22011;59.912;30.300;2023-11-21T12:30:10;102250.44;;;0.31;62.82
35918;BME280;22011;59.912;30.300;2023-11-21T12:32:39;102253.84;;;0.33;62.95
35918;BME280;22011;59.912;30.300;2023-11-21T12:35:08;102260.00;;;0.32;62.83
35918;BME280;22011;59.912;30.300;2023-11-21T12:37:36;102266.09;;;0.33;62.93
35918;BME280;22011;59.912;30.300;2023-11-21T12:40:04;102255.66;;;0.31;62.73
35918;BME280;22011;59.912;30.300;2023-11-21T12:42:33;102258.22;;;0.33;62.91
35918;BME280;22011;59.912;30.300;2023-11-21T12:45:18;102262.50;;;0.36;62.94
35918;BME280;22011;59.912;30.300;2023-11-21T12:47:46;102265.84;;;0.39;63.07
35918;BME280;22011;59.912;30.300;2023-11-21T12:50:13;102260.78;;;0.35;62.89
35918;BME280;22011;59.912;30.300;2023-11-21T12:52:41;102267.06;;;0.30;63.16